sensor_id;sensor_type;location;lat;lon;timestamp;P1;durP1;ratioP1;P2;durP2;ratioP2
56712;SDS011;42589;45.536;9.032;2022-12-18T00:02:32;31.38;;;26.10;;
56712;SDS011;42589;45.536;9.032;2022-12-18T00:05:35;31.63;;;24.60;;
56712;SDS011;42589;45.536;9.032;2022-12-18T00:08:36;32.58;;;25.58;;
56712;SDS011;42589;45.536;9.032;2022-12-18T00:11:37;30.73;;;25.17;;
56712;SDS011;42589;45.536;9.032;2022-12-18T00:14:38;33.13;;;27.13;;
56712;SDS011;42589;45.536;9.032;2022-12-18T00:17:39;30.52;;;25.45;;
56712;SDS011;42589;45.536;9.032;2022-12-18T00:20:40;32.08;;;25.15;;
56712;SDS011;42589;45.536;9.032;2022-12-18T00:23:42;39.20;;;30.77;;
56712;SDS011;42589;45.536;9.032;2022-12-18T00:26:47;33.08;;;27.45;;
56712;SDS011;42589;45.536;9.032;2022-12-18T00:29:53;32.53;;;26.67;;
56712;SDS011;42589;45.536;9.032;2022-12-18T00:32:57;34.10;;;27.13;;
56712;SDS011;42589;45.536;9.032;2022-12-18T00:36:21;33.35;;;27.02;;
56712;SDS011;42589;45.536;9.032;2022-12-18T00:39:28;31.45;;;26.58;;
56712;SDS011;42589;45.536;9.032;2022-12-18T00:42:31;31.30;;;26.50;;
56712;SDS011;42589;45.536;9.032;2022-12-18T00:45:50;34.40;;;27.15;;
56712;SDS011;42589;45.536;9.032;2022-12-18T00:48:52;33.05;;;26.60;;
56712;SDS011;42589;45.536;9.032;2022-12-18T00:51:55;30.55;;;25.40;;
56712;SDS011;42589;45.536;9.032;2022-12-18T00:55:01;33.75;;;26.95;;
56712;SDS011;42589;45.536;9.032;2022-12-18T00:58:03;31.27;;;26.15;;
56712;SDS011;42589;45.536;9.032;2022-12-18T01:01:07;32.97;;;27.38;;
56712;SDS011;42589;45.536;9.032;2022-12-18T01:04:08;34.47;;;27.50;;
56712;SDS011;42589;45.536;9.032;2022-12-18T01:07:10;33.90;;;26.27;;
56712;SDS011;42589;45.536;9.032;2022-12-18T01:10:11;33.45;;;26.30;;
56712;SDS011;42589;45.536;9.032;2022-12-18T01:13:12;31.30;;;25.58;;
56712;SDS011;42589;45.536;9.032;2022-12-18T01:16:13;32.10;;;26.02;;
56712;SDS011;42589;45.536;9.032;2022-12-18T01:19:14;32.53;;;26.23;;
56712;SDS011;42589;45.536;9.032;2022-12-18T01:22:15;30.55;;;26.15;;
56712;SDS011;42589;45.536;9.032;2022-12-18T01:25:16;32.40;;;25.45;;
56712;SDS011;42589;45.536;9.032;2022-12-18T01:28:17;31.95;;;25.45;;
56712;SDS011;42589;45.536;9.032;2022-12-18T01:31:18;30.63;;;26.00;;
56712;SDS011;42589;45.536;9.032;2022-12-18T01:34:19;32.95;;;26.80;;
56712;SDS011;42589;45.536;9.032;2022-12-18T01:37:19;31.35;;;26.02;;
56712;SDS011;42589;45.536;9.032;2022-12-18T01:40:20;33.38;;;26.65;;
56712;SDS011;42589;45.536;9.032;2022-12-18T01:43:21;36.03;;;27.77;;
56712;SDS011;42589;45.536;9.032;2022-12-18T01:46:23;38.00;;;28.42;;
56712;SDS011;42589;45.536;9.032;2022-12-18T01:49:26;43.90;;;29.77;;
56712;SDS011;42589;45.536;9.032;2022-12-18T01:52:31;42.63;;;29.33;;
56712;SDS011;42589;45.536;9.032;2022-12-18T01:55:35;48.50;;;31.65;;
56712;SDS011;42589;45.536;9.032;2022-12-18T02:01:40;41.88;;;29.75;;
56712;SDS011;42589;45.536;9.032;2022-12-18T02:04:41;47.75;;;30.88;;
56712;SDS011;42589;45.536;9.032;2022-12-18T02:07:45;45.95;;;30.50;;
56712;SDS011;42589;45.536;9.032;2022-12-18T02:17:37;44.30;;;30.15;;
56712;SDS011;42589;45.536;9.032;2022-12-18T02:20:43;52.08;;;32.55;;
56712;SDS011;42589;45.536;9.032;2022-12-18T02:27:05;51.30;;;32.85;;
56712;SDS011;42589;45.536;9.032;2022-12-18T02:30:06;48.65;;;31.65;;
56712;SDS011;42589;45.536;9.032;2022-12-18T02:33:08;51.65;;;33.20;;
56712;SDS011;42589;45.536;9.032;2022-12-18T02:36:09;51.10;;;32.47;;
56712;SDS011;42589;45.536;9.032;2022-12-18T02:39:11;55.80;;;33.97;;
56712;SDS011;42589;45.536;9.032;2022-12-18T02:42:13;60.40;;;36.53;;
56712;SDS011;42589;45.536;9.032;2022-12-18T02:45:14;62.38;;;37.92;;
56712;SDS011;42589;45.536;9.032;2022-12-18T02:48:14;69.40;;;40.70;;
56712;SDS011;42589;45.536;9.032;2022-12-18T02:51:23;72.20;;;39.63;;
56712;SDS011;42589;45.536;9.032;2022-12-18T02:57:47;69.18;;;40.38;;
56712;SDS011;42589;45.536;9.032;2022-12-18T03:04:09;80.25;;;40.63;;
56712;SDS011;42589;45.536;9.032;2022-12-18T03:07:14;75.35;;;40.60;;
56712;SDS011;42589;45.536;9.032;2022-12-18T03:10:21;66.03;;;38.90;;
56712;SDS011;42589;45.536;9.032;2022-12-18T03:13:26;69.70;;;40.38;;
56712;SDS011;42589;45.536;9.032;2022-12-18T03:16:28;75.43;;;41.28;;
56712;SDS011;42589;45.536;9.032;2022-12-18T03:19:31;69.82;;;40.45;;
56712;SDS011;42589;45.536;9.032;2022-12-18T03:22:35;64.70;;;39.22;;
56712;SDS011;42589;45.536;9.032;2022-12-18T03:25:41;77.45;;;39.65;;
56712;SDS011;42589;45.536;9.032;2022-12-18T03:28:44;71.85;;;39.20;;
56712;SDS011;42589;45.536;9.032;2022-12-18T03:31:47;64.93;;;38.25;;
56712;SDS011;42589;45.536;9.032;2022-12-18T03:34:49;65.50;;;38.65;;
56712;SDS011;42589;45.536;9.032;2022-12-18T03:37:50;79.07;;;41.58;;
56712;SDS011;42589;45.536;9.032;2022-12-18T03:40:54;70.63;;;41.65;;
56712;SDS011;42589;45.536;9.032;2022-12-18T03:47:29;75.13;;;42.08;;
56712;SDS011;42589;45.536;9.032;2022-12-18T03:50:39;72.85;;;41.88;;
56712;SDS011;42589;45.536;9.032;2022-12-18T03:53:45;74.20;;;41.17;;
56712;SDS011;42589;45.536;9.032;2022-12-18T03:56:48;69.95;;;40.90;;
56712;SDS011;42589;45.536;9.032;2022-12-18T03:59:52;69.35;;;41.45;;
56712;SDS011;42589;45.536;9.032;2022-12-18T04:02:55;77.38;;;42.88;;
56712;SDS011;42589;45.536;9.032;2022-12-18T04:05:56;77.43;;;43.42;;
56712;SDS011;42589;45.536;9.032;2022-12-18T04:08:57;82.82;;;42.47;;
56712;SDS011;42589;45.536;9.032;2022-12-18T04:11:58;78.90;;;41.83;;
56712;SDS011;42589;45.536;9.032;2022-12-18T04:14:59;79.72;;;43.63;;
56712;SDS011;42589;45.536;9.032;2022-12-18T04:17:59;80.82;;;44.03;;
56712;SDS011;42589;45.536;9.032;2022-12-18T04:21:06;77.78;;;42.20;;
56712;SDS011;42589;45.536;9.032;2022-12-18T04:24:07;75.68;;;42.78;;
56712;SDS011;42589;45.536;9.032;2022-12-18T04:27:08;81.30;;;44.97;;
56712;SDS011;42589;45.536;9.032;2022-12-18T04:30:09;78.82;;;43.25;;
56712;SDS011;42589;45.536;9.032;2022-12-18T04:33:10;74.93;;;41.08;;
56712;SDS011;42589;45.536;9.032;2022-12-18T04:36:11;80.55;;;43.55;;
56712;SDS011;42589;45.536;9.032;2022-12-18T04:39:12;78.85;;;43.08;;
56712;SDS011;42589;45.536;9.032;2022-12-18T04:42:13;84.35;;;43.45;;
56712;SDS011;42589;45.536;9.032;2022-12-18T04:45:14;82.40;;;43.92;;
56712;SDS011;42589;45.536;9.032;2022-12-18T04:48:18;90.75;;;44.42;;
56712;SDS011;42589;45.536;9.032;2022-12-18T04:51:20;83.28;;;44.00;;
56712;SDS011;42589;45.536;9.032;2022-12-18T04:54:20;84.05;;;44.60;;
56712;SDS011;42589;45.536;9.032;2022-12-18T04:57:21;76.60;;;42.70;;
56712;SDS011;42589;45.536;9.032;2022-12-18T05:00:21;70.78;;;40.40;;
56712;SDS011;42589;45.536;9.032;2022-12-18T05:03:22;76.63;;;41.70;;
56712;SDS011;42589;45.536;9.032;2022-12-18T05:06:22;74.07;;;42.65;;
56712;SDS011;42589;45.536;9.032;2022-12-18T05:09:23;79.13;;;43.28;;
56712;SDS011;42589;45.536;9.032;2022-12-18T05:12:24;78.72;;;43.00;;
56712;SDS011;42589;45.536;9.032;2022-12-18T05:15:31;80.45;;;42.13;;
56712;SDS011;42589;45.536;9.032;2022-12-18T05:18:32;84.32;;;44.55;;
56712;SDS011;42589;45.536;9.032;2022-12-18T05:21:32;80.22;;;42.83;;
56712;SDS011;42589;45.536;9.032;2022-12-18T05:24:33;82.50;;;43.13;;
56712;SDS011;42589;45.536;9.032;2022-12-18T05:27:33;83.43;;;44.10;;
56712;SDS011;42589;45.536;9.032;2022-12-18T05:30:34;79.22;;;42.13;;
56712;SDS011;42589;45.536;9.032;2022-12-18T05:33:34;77.43;;;42.88;;
56712;SDS011;42589;45.536;9.032;2022-12-18T05:36:35;83.47;;;44.28;;
56712;SDS011;42589;45.536;9.032;2022-12-18T05:39:36;90.22;;;43.90;;
56712;SDS011;42589;45.536;9.032;2022-12-18T05:42:37;85.00;;;42.60;;
56712;SDS011;42589;45.536;9.032;2022-12-18T05:45:38;85.47;;;44.85;;
56712;SDS011;42589;45.536;9.032;2022-12-18T05:48:39;81.82;;;43.88;;
56712;SDS011;42589;45.536;9.032;2022-12-18T05:51:39;83.72;;;42.88;;
56712;SDS011;42589;45.536;9.032;2022-12-18T05:54:40;86.88;;;42.17;;
56712;SDS011;42589;45.536;9.032;2022-12-18T05:57:41;87.32;;;42.88;;
56712;SDS011;42589;45.536;9.032;2022-12-18T06:00:43;84.63;;;43.20;;
56712;SDS011;42589;45.536;9.032;2022-12-18T06:03:44;87.55;;;43.00;;
56712;SDS011;42589;45.536;9.032;2022-12-18T06:06:45;74.10;;;40.42;;
56712;SDS011;42589;45.536;9.032;2022-12-18T06:09:46;80.40;;;42.60;;
56712;SDS011;42589;45.536;9.032;2022-12-18T06:12:47;82.30;;;43.28;;
56712;SDS011;42589;45.536;9.032;2022-12-18T06:15:47;79.22;;;42.10;;
56712;SDS011;42589;45.536;9.032;2022-12-18T06:18:48;75.78;;;41.38;;
56712;SDS011;42589;45.536;9.032;2022-12-18T06:21:49;82.30;;;41.25;;
56712;SDS011;42589;45.536;9.032;2022-12-18T06:24:50;73.38;;;40.33;;
56712;SDS011;42589;45.536;9.032;2022-12-18T06:27:50;75.20;;;41.10;;
56712;SDS011;42589;45.536;9.032;2022-12-18T06:30:51;77.57;;;42.47;;
56712;SDS011;42589;45.536;9.032;2022-12-18T06:33:51;71.50;;;41.42;;
56712;SDS011;42589;45.536;9.032;2022-12-18T06:36:52;82.38;;;42.05;;
56712;SDS011;42589;45.536;9.032;2022-12-18T06:39:53;83.45;;;40.83;;
56712;SDS011;42589;45.536;9.032;2022-12-18T06:42:54;78.97;;;41.25;;
56712;SDS011;42589;45.536;9.032;2022-12-18T06:45:59;79.35;;;41.58;;
56712;SDS011;42589;45.536;9.032;2022-12-18T06:52:00;79.82;;;41.25;;
56712;SDS011;42589;45.536;9.032;2022-12-18T06:55:01;84.07;;;42.58;;
56712;SDS011;42589;45.536;9.032;2022-12-18T06:58:01;88.80;;;44.47;;
56712;SDS011;42589;45.536;9.032;2022-12-18T07:01:03;88.70;;;42.90;;
56712;SDS011;42589;45.536;9.032;2022-12-18T07:04:04;87.15;;;42.75;;
56712;SDS011;42589;45.536;9.032;2022-12-18T07:07:05;87.30;;;43.47;;
56712;SDS011;42589;45.536;9.032;2022-12-18T07:10:06;78.68;;;41.67;;
56712;SDS011;42589;45.536;9.032;2022-12-18T07:13:06;89.95;;;42.90;;
56712;SDS011;42589;45.536;9.032;2022-12-18T07:16:08;83.88;;;41.70;;
56712;SDS011;42589;45.536;9.032;2022-12-18T07:19:09;87.30;;;44.05;;
56712;SDS011;42589;45.536;9.032;2022-12-18T07:22:10;87.35;;;41.38;;
56712;SDS011;42589;45.536;9.032;2022-12-18T07:25:11;89.32;;;43.25;;
56712;SDS011;42589;45.536;9.032;2022-12-18T07:28:12;92.28;;;42.28;;
56712;SDS011;42589;45.536;9.032;2022-12-18T07:31:16;94.82;;;42.92;;
56712;SDS011;42589;45.536;9.032;2022-12-18T07:34:18;88.13;;;43.30;;
56712;SDS011;42589;45.536;9.032;2022-12-18T07:37:18;92.95;;;43.08;;
56712;SDS011;42589;45.536;9.032;2022-12-18T07:40:25;89.72;;;43.90;;
56712;SDS011;42589;45.536;9.032;2022-12-18T07:43:26;86.75;;;41.72;;
56712;SDS011;42589;45.536;9.032;2022-12-18T07:46:29;93.75;;;43.13;;
56712;SDS011;42589;45.536;9.032;2022-12-18T07:49:33;97.22;;;44.17;;
56712;SDS011;42589;45.536;9.032;2022-12-18T07:52:34;93.47;;;41.67;;
56712;SDS011;42589;45.536;9.032;2022-12-18T07:55:34;94.80;;;42.13;;
56712;SDS011;42589;45.536;9.032;2022-12-18T07:58:36;79.55;;;40.65;;
56712;SDS011;42589;45.536;9.032;2022-12-18T08:01:36;77.75;;;39.83;;
56712;SDS011;42589;45.536;9.032;2022-12-18T08:04:37;90.60;;;43.95;;
56712;SDS011;42589;45.536;9.032;2022-12-18T08:07:38;93.90;;;43.58;;
56712;SDS011;42589;45.536;9.032;2022-12-18T08:10:41;98.50;;;43.65;;
56712;SDS011;42589;45.536;9.032;2022-12-18T08:13:42;100.43;;;44.65;;
56712;SDS011;42589;45.536;9.032;2022-12-18T08:16:43;89.35;;;43.10;;
56712;SDS011;42589;45.536;9.032;2022-12-18T08:19:44;89.88;;;41.97;;
56712;SDS011;42589;45.536;9.032;2022-12-18T08:22:45;89.15;;;42.70;;
56712;SDS011;42589;45.536;9.032;2022-12-18T08:25:45;84.47;;;41.88;;
56712;SDS011;42589;45.536;9.032;2022-12-18T08:28:46;86.32;;;41.83;;
56712;SDS011;42589;45.536;9.032;2022-12-18T08:31:47;82.75;;;40.33;;
56712;SDS011;42589;45.536;9.032;2022-12-18T08:34:48;74.75;;;39.58;;
56712;SDS011;42589;45.536;9.032;2022-12-18T08:37:52;81.45;;;40.58;;
56712;SDS011;42589;45.536;9.032;2022-12-18T08:41:10;83.30;;;40.90;;
56712;SDS011;42589;45.536;9.032;2022-12-18T08:44:11;85.25;;;41.42;;
56712;SDS011;42589;45.536;9.032;2022-12-18T08:47:30;89.65;;;41.33;;
56712;SDS011;42589;45.536;9.032;2022-12-18T08:50:30;84.13;;;41.90;;
56712;SDS011;42589;45.536;9.032;2022-12-18T08:53:31;78.72;;;40.70;;
56712;SDS011;42589;45.536;9.032;2022-12-18T08:56:32;79.80;;;41.97;;
56712;SDS011;42589;45.536;9.032;2022-12-18T08:59:33;88.07;;;42.92;;
56712;SDS011;42589;45.536;9.032;2022-12-18T09:02:34;82.28;;;40.90;;
56712;SDS011;42589;45.536;9.032;2022-12-18T09:05:35;83.40;;;42.38;;
56712;SDS011;42589;45.536;9.032;2022-12-18T09:08:36;83.32;;;42.83;;
56712;SDS011;42589;45.536;9.032;2022-12-18T09:11:37;88.43;;;42.20;;
56712;SDS011;42589;45.536;9.032;2022-12-18T09:14:38;87.60;;;43.70;;
56712;SDS011;42589;45.536;9.032;2022-12-18T09:17:38;95.82;;;46.83;;
56712;SDS011;42589;45.536;9.032;2022-12-18T09:20:40;90.22;;;46.47;;
56712;SDS011;42589;45.536;9.032;2022-12-18T09:23:40;92.88;;;46.53;;
56712;SDS011;42589;45.536;9.032;2022-12-18T09:26:54;87.82;;;45.90;;
56712;SDS011;42589;45.536;9.032;2022-12-18T09:29:56;91.15;;;46.55;;
56712;SDS011;42589;45.536;9.032;2022-12-18T09:33:00;80.70;;;42.78;;
56712;SDS011;42589;45.536;9.032;2022-12-18T09:36:01;77.45;;;42.83;;
56712;SDS011;42589;45.536;9.032;2022-12-18T09:39:02;82.30;;;44.47;;
56712;SDS011;42589;45.536;9.032;2022-12-18T09:42:03;79.60;;;43.50;;
56712;SDS011;42589;45.536;9.032;2022-12-18T09:45:03;87.03;;;45.17;;
56712;SDS011;42589;45.536;9.032;2022-12-18T09:48:04;79.80;;;42.72;;
56712;SDS011;42589;45.536;9.032;2022-12-18T09:51:15;65.72;;;38.10;;
56712;SDS011;42589;45.536;9.032;2022-12-18T09:54:22;65.65;;;38.05;;
56712;SDS011;42589;45.536;9.032;2022-12-18T09:57:24;73.53;;;39.28;;
56712;SDS011;42589;45.536;9.032;2022-12-18T10:00:27;64.28;;;37.47;;
56712;SDS011;42589;45.536;9.032;2022-12-18T10:03:28;69.35;;;39.88;;
56712;SDS011;42589;45.536;9.032;2022-12-18T10:06:32;76.70;;;41.47;;
56712;SDS011;42589;45.536;9.032;2022-12-18T10:09:37;74.07;;;40.63;;
56712;SDS011;42589;45.536;9.032;2022-12-18T10:12:47;70.70;;;41.55;;
56712;SDS011;42589;45.536;9.032;2022-12-18T10:28:36;73.65;;;41.03;;
56712;SDS011;42589;45.536;9.032;2022-12-18T10:31:38;71.50;;;40.60;;
56712;SDS011;42589;45.536;9.032;2022-12-18T10:34:39;71.63;;;41.55;;
56712;SDS011;42589;45.536;9.032;2022-12-18T10:37:40;73.88;;;41.78;;
56712;SDS011;42589;45.536;9.032;2022-12-18T10:41:00;74.93;;;41.63;;
56712;SDS011;42589;45.536;9.032;2022-12-18T10:47:14;67.90;;;39.42;;
56712;SDS011;42589;45.536;9.032;2022-12-18T10:50:28;62.33;;;37.97;;
56712;SDS011;42589;45.536;9.032;2022-12-18T10:53:31;55.35;;;35.20;;
56712;SDS011;42589;45.536;9.032;2022-12-18T10:56:33;55.78;;;35.45;;
56712;SDS011;42589;45.536;9.032;2022-12-18T10:59:37;58.40;;;37.03;;
56712;SDS011;42589;45.536;9.032;2022-12-18T11:02:51;63.65;;;38.72;;
56712;SDS011;42589;45.536;9.032;2022-12-18T11:06:01;57.05;;;37.42;;
56712;SDS011;42589;45.536;9.032;2022-12-18T11:09:03;59.10;;;37.38;;
56712;SDS011;42589;45.536;9.032;2022-12-18T11:12:15;57.78;;;35.53;;
56712;SDS011;42589;45.536;9.032;2022-12-18T11:15:21;53.55;;;35.33;;
56712;SDS011;42589;45.536;9.032;2022-12-18T11:18:29;52.42;;;35.83;;
56712;SDS011;42589;45.536;9.032;2022-12-18T11:21:30;51.13;;;34.58;;
56712;SDS011;42589;45.536;9.032;2022-12-18T11:24:42;50.85;;;33.50;;
56712;SDS011;42589;45.536;9.032;2022-12-18T11:27:59;51.72;;;33.70;;
56712;SDS011;42589;45.536;9.032;2022-12-18T11:31:20;50.50;;;33.88;;
56712;SDS011;42589;45.536;9.032;2022-12-18T11:34:28;49.55;;;32.60;;
56712;SDS011;42589;45.536;9.032;2022-12-18T11:37:31;50.08;;;33.40;;
56712;SDS011;42589;45.536;9.032;2022-12-18T11:40:36;51.22;;;36.03;;
56712;SDS011;42589;45.536;9.032;2022-12-18T11:47:37;55.35;;;37.92;;
56712;SDS011;42589;45.536;9.032;2022-12-18T11:53:35;49.60;;;33.22;;
56712;SDS011;42589;45.536;9.032;2022-12-18T11:56:43;49.72;;;34.75;;
56712;SDS011;42589;45.536;9.032;2022-12-18T11:59:55;49.70;;;34.25;;
56712;SDS011;42589;45.536;9.032;2022-12-18T12:09:23;52.72;;;36.15;;
56712;SDS011;42589;45.536;9.032;2022-12-18T12:22:04;50.78;;;34.78;;
56712;SDS011;42589;45.536;9.032;2022-12-18T12:31:29;51.28;;;34.83;;
56712;SDS011;42589;45.536;9.032;2022-12-18T12:41:12;54.13;;;36.38;;
56712;SDS011;42589;45.536;9.032;2022-12-18T12:44:38;55.95;;;35.30;;
56712;SDS011;42589;45.536;9.032;2022-12-18T12:47:41;50.25;;;34.67;;
56712;SDS011;42589;45.536;9.032;2022-12-18T12:50:43;52.25;;;35.00;;
56712;SDS011;42589;45.536;9.032;2022-12-18T12:53:44;46.75;;;33.22;;
56712;SDS011;42589;45.536;9.032;2022-12-18T12:56:50;52.80;;;35.83;;
56712;SDS011;42589;45.536;9.032;2022-12-18T13:00:03;52.00;;;34.70;;
56712;SDS011;42589;45.536;9.032;2022-12-18T13:06:16;54.70;;;34.90;;
56712;SDS011;42589;45.536;9.032;2022-12-18T13:09:19;53.70;;;34.95;;
56712;SDS011;42589;45.536;9.032;2022-12-18T13:12:20;49.33;;;33.50;;
56712;SDS011;42589;45.536;9.032;2022-12-18T13:15:50;50.78;;;34.97;;
56712;SDS011;42589;45.536;9.032;2022-12-18T13:19:00;52.78;;;35.88;;
56712;SDS011;42589;45.536;9.032;2022-12-18T13:22:01;51.42;;;35.90;;
56712;SDS011;42589;45.536;9.032;2022-12-18T13:25:02;53.70;;;37.50;;
56712;SDS011;42589;45.536;9.032;2022-12-18T13:34:39;56.80;;;37.70;;
56712;SDS011;42589;45.536;9.032;2022-12-18T13:37:43;53.58;;;37.38;;
56712;SDS011;42589;45.536;9.032;2022-12-18T13:46:49;57.63;;;38.33;;
56712;SDS011;42589;45.536;9.032;2022-12-18T13:49:51;57.13;;;38.15;;
56712;SDS011;42589;45.536;9.032;2022-12-18T13:52:52;58.38;;;38.25;;
56712;SDS011;42589;45.536;9.032;2022-12-18T13:55:52;55.80;;;38.83;;
56712;SDS011;42589;45.536;9.032;2022-12-18T14:02:13;52.13;;;36.20;;
56712;SDS011;42589;45.536;9.032;2022-12-18T14:05:30;56.97;;;38.42;;
56712;SDS011;42589;45.536;9.032;2022-12-18T14:08:38;61.55;;;40.60;;
56712;SDS011;42589;45.536;9.032;2022-12-18T14:11:47;59.33;;;39.90;;
56712;SDS011;42589;45.536;9.032;2022-12-18T14:14:48;57.42;;;39.00;;
56712;SDS011;42589;45.536;9.032;2022-12-18T14:17:51;58.53;;;39.20;;
56712;SDS011;42589;45.536;9.032;2022-12-18T14:20:56;59.60;;;39.90;;
56712;SDS011;42589;45.536;9.032;2022-12-18T14:26:58;54.95;;;38.58;;
56712;SDS011;42589;45.536;9.032;2022-12-18T14:33:28;61.45;;;40.28;;
56712;SDS011;42589;45.536;9.032;2022-12-18T14:36:29;61.72;;;42.05;;
56712;SDS011;42589;45.536;9.032;2022-12-18T14:39:29;63.90;;;43.13;;
56712;SDS011;42589;45.536;9.032;2022-12-18T14:42:29;67.25;;;44.78;;
56712;SDS011;42589;45.536;9.032;2022-12-18T14:45:37;67.00;;;44.20;;
56712;SDS011;42589;45.536;9.032;2022-12-18T14:48:41;65.63;;;43.63;;
56712;SDS011;42589;45.536;9.032;2022-12-18T14:51:46;71.45;;;45.10;;
56712;SDS011;42589;45.536;9.032;2022-12-18T14:54:47;63.55;;;43.25;;
56712;SDS011;42589;45.536;9.032;2022-12-18T14:57:49;66.57;;;44.35;;
56712;SDS011;42589;45.536;9.032;2022-12-18T15:00:50;67.57;;;44.83;;
56712;SDS011;42589;45.536;9.032;2022-12-18T15:03:52;64.55;;;42.85;;
56712;SDS011;42589;45.536;9.032;2022-12-18T15:07:06;65.57;;;43.17;;
56712;SDS011;42589;45.536;9.032;2022-12-18T15:10:15;68.88;;;44.95;;
56712;SDS011;42589;45.536;9.032;2022-12-18T15:13:20;69.13;;;45.13;;
56712;SDS011;42589;45.536;9.032;2022-12-18T15:16:22;66.55;;;45.40;;
56712;SDS011;42589;45.536;9.032;2022-12-18T15:19:27;69.38;;;46.88;;
56712;SDS011;42589;45.536;9.032;2022-12-18T15:22:35;74.93;;;48.55;;
56712;SDS011;42589;45.536;9.032;2022-12-18T15:25:36;73.30;;;45.70;;
56712;SDS011;42589;45.536;9.032;2022-12-18T15:28:48;71.07;;;46.10;;
56712;SDS011;42589;45.536;9.032;2022-12-18T15:32:03;72.07;;;46.75;;
56712;SDS011;42589;45.536;9.032;2022-12-18T15:38:10;69.05;;;45.80;;
56712;SDS011;42589;45.536;9.032;2022-12-18T15:41:15;68.95;;;44.70;;
56712;SDS011;42589;45.536;9.032;2022-12-18T15:44:20;68.55;;;44.97;;
56712;SDS011;42589;45.536;9.032;2022-12-18T15:47:21;70.75;;;44.78;;
56712;SDS011;42589;45.536;9.032;2022-12-18T15:50:23;72.55;;;46.15;;
56712;SDS011;42589;45.536;9.032;2022-12-18T15:53:25;75.72;;;49.05;;
56712;SDS011;42589;45.536;9.032;2022-12-18T15:56:27;75.25;;;48.42;;
56712;SDS011;42589;45.536;9.032;2022-12-18T15:59:46;71.05;;;47.08;;
56712;SDS011;42589;45.536;9.032;2022-12-18T16:02:48;77.72;;;49.55;;
56712;SDS011;42589;45.536;9.032;2022-12-18T16:05:48;76.28;;;49.03;;
56712;SDS011;42589;45.536;9.032;2022-12-18T16:08:49;79.53;;;48.05;;
56712;SDS011;42589;45.536;9.032;2022-12-18T16:11:50;75.32;;;48.35;;
56712;SDS011;42589;45.536;9.032;2022-12-18T16:14:51;81.68;;;49.83;;
56712;SDS011;42589;45.536;9.032;2022-12-18T16:17:51;80.15;;;49.40;;
56712;SDS011;42589;45.536;9.032;2022-12-18T16:20:52;79.40;;;49.83;;
56712;SDS011;42589;45.536;9.032;2022-12-18T16:23:53;87.55;;;52.30;;
56712;SDS011;42589;45.536;9.032;2022-12-18T16:26:56;85.13;;;51.40;;
56712;SDS011;42589;45.536;9.032;2022-12-18T16:29:57;97.85;;;56.13;;
56712;SDS011;42589;45.536;9.032;2022-12-18T16:32:58;94.63;;;53.63;;
56712;SDS011;42589;45.536;9.032;2022-12-18T16:36:02;96.63;;;52.88;;
56712;SDS011;42589;45.536;9.032;2022-12-18T16:39:03;102.80;;;54.45;;
56712;SDS011;42589;45.536;9.032;2022-12-18T16:42:06;96.57;;;55.25;;
56712;SDS011;42589;45.536;9.032;2022-12-18T16:45:11;99.55;;;56.25;;
56712;SDS011;42589;45.536;9.032;2022-12-18T16:51:18;110.78;;;58.38;;
56712;SDS011;42589;45.536;9.032;2022-12-18T16:54:37;105.57;;;57.53;;
56712;SDS011;42589;45.536;9.032;2022-12-18T16:57:37;108.57;;;57.75;;
56712;SDS011;42589;45.536;9.032;2022-12-18T17:00:38;105.25;;;57.63;;
56712;SDS011;42589;45.536;9.032;2022-12-18T17:03:40;104.82;;;59.97;;
56712;SDS011;42589;45.536;9.032;2022-12-18T17:06:43;113.43;;;60.20;;
56712;SDS011;42589;45.536;9.032;2022-12-18T17:09:43;121.85;;;62.72;;
56712;SDS011;42589;45.536;9.032;2022-12-18T17:12:44;115.45;;;60.47;;
56712;SDS011;42589;45.536;9.032;2022-12-18T17:15:45;109.63;;;60.47;;
56712;SDS011;42589;45.536;9.032;2022-12-18T17:18:46;113.60;;;60.70;;
56712;SDS011;42589;45.536;9.032;2022-12-18T17:21:48;131.45;;;66.45;;
56712;SDS011;42589;45.536;9.032;2022-12-18T17:24:50;133.05;;;64.50;;
56712;SDS011;42589;45.536;9.032;2022-12-18T17:27:51;148.20;;;70.43;;
56712;SDS011;42589;45.536;9.032;2022-12-18T17:30:53;151.40;;;68.43;;
56712;SDS011;42589;45.536;9.032;2022-12-18T17:33:53;150.88;;;68.25;;
56712;SDS011;42589;45.536;9.032;2022-12-18T17:36:54;143.75;;;68.53;;
56712;SDS011;42589;45.536;9.032;2022-12-18T17:39:54;142.15;;;68.05;;
56712;SDS011;42589;45.536;9.032;2022-12-18T17:42:56;130.15;;;62.50;;
56712;SDS011;42589;45.536;9.032;2022-12-18T17:46:00;131.10;;;62.28;;
56712;SDS011;42589;45.536;9.032;2022-12-18T17:49:01;136.10;;;60.72;;
56712;SDS011;42589;45.536;9.032;2022-12-18T17:52:02;128.32;;;62.65;;
56712;SDS011;42589;45.536;9.032;2022-12-18T17:55:03;124.35;;;62.10;;
56712;SDS011;42589;45.536;9.032;2022-12-18T17:58:04;130.73;;;63.17;;
56712;SDS011;42589;45.536;9.032;2022-12-18T18:01:05;146.18;;;79.40;;
56712;SDS011;42589;45.536;9.032;2022-12-18T18:04:06;161.90;;;88.78;;
56712;SDS011;42589;45.536;9.032;2022-12-18T18:07:07;141.85;;;69.38;;
56712;SDS011;42589;45.536;9.032;2022-12-18T18:10:07;116.93;;;58.83;;
56712;SDS011;42589;45.536;9.032;2022-12-18T18:13:19;150.18;;;55.55;;
56712;SDS011;42589;45.536;9.032;2022-12-18T18:16:39;219.50;;;64.53;;
56712;SDS011;42589;45.536;9.032;2022-12-18T18:19:39;137.95;;;58.40;;
56712;SDS011;42589;45.536;9.032;2022-12-18T18:22:41;151.50;;;63.28;;
56712;SDS011;42589;45.536;9.032;2022-12-18T18:25:42;125.13;;;60.67;;
56712;SDS011;42589;45.536;9.032;2022-12-18T18:28:42;255.82;;;65.65;;
56712;SDS011;42589;45.536;9.032;2022-12-18T18:31:43;190.23;;;57.47;;
56712;SDS011;42589;45.536;9.032;2022-12-18T18:34:43;122.30;;;59.10;;
56712;SDS011;42589;45.536;9.032;2022-12-18T18:37:46;140.88;;;58.38;;
56712;SDS011;42589;45.536;9.032;2022-12-18T18:40:47;142.23;;;58.80;;
56712;SDS011;42589;45.536;9.032;2022-12-18T18:43:48;172.73;;;63.08;;
56712;SDS011;42589;45.536;9.032;2022-12-18T18:46:48;291.02;;;65.03;;
56712;SDS011;42589;45.536;9.032;2022-12-18T18:49:49;154.20;;;61.97;;
56712;SDS011;42589;45.536;9.032;2022-12-18T18:52:50;163.15;;;63.60;;
56712;SDS011;42589;45.536;9.032;2022-12-18T18:55:51;136.68;;;60.70;;
56712;SDS011;42589;45.536;9.032;2022-12-18T18:58:53;244.10;;;65.35;;
56712;SDS011;42589;45.536;9.032;2022-12-18T19:01:56;147.45;;;62.85;;
56712;SDS011;42589;45.536;9.032;2022-12-18T19:04:58;130.93;;;59.60;;
56712;SDS011;42589;45.536;9.032;2022-12-18T19:07:59;122.85;;;57.45;;
56712;SDS011;42589;45.536;9.032;2022-12-18T19:11:03;142.18;;;58.70;;
56712;SDS011;42589;45.536;9.032;2022-12-18T19:14:08;135.00;;;60.50;;
56712;SDS011;42589;45.536;9.032;2022-12-18T19:17:09;112.18;;;54.72;;
56712;SDS011;42589;45.536;9.032;2022-12-18T19:20:09;114.65;;;54.92;;
56712;SDS011;42589;45.536;9.032;2022-12-18T19:23:11;136.70;;;55.70;;
56712;SDS011;42589;45.536;9.032;2022-12-18T19:26:13;120.30;;;52.03;;
56712;SDS011;42589;45.536;9.032;2022-12-18T19:29:13;165.52;;;50.90;;
56712;SDS011;42589;45.536;9.032;2022-12-18T19:32:15;175.30;;;53.28;;
56712;SDS011;42589;45.536;9.032;2022-12-18T19:35:16;89.00;;;47.58;;
56712;SDS011;42589;45.536;9.032;2022-12-18T19:38:17;100.15;;;51.10;;